sensor_id;sensor_type;location;lat;lon;timestamp;pressure;altitude;pressure_sealevel;temperature;humidity
78198;BME280;67472;51.554;7.812;2023-05-14T00:00:57;101316.34;;;9.70;100.00
78198;BME280;67472;51.554;7.812;2023-05-14T00:03:44;101324.19;;;9.72;100.00
78198;BME280;67472;51.554;7.812;2023-05-14T00:06:30;101318.34;;;9.79;100.00
78198;BME280;67472;51.554;7.812;2023-05-14T00:09:16;101318.66;;;9.87;100.00
78198;BME280;67472;51.554;7.812;2023-05-14T00:12:04;101323.00;;;9.76;100.00
78198;BME280;67472;51.554;7.812;2023-05-14T00:14:51;101310.88;;;9.73;100.00
78198;BME280;67472;51.554;7.812;2023-05-14T00:17:37;101317.09;;;9.72;100.00
78198;BME280;67472;51.554;7.812;2023-05-14T00:20:24;101318.78;;;9.73;100.00
78198;BME280;67472;51.554;7.812;2023-05-14T00:23:10;101318.06;;;9.84;100.00
78198;BME280;67472;51.554;7.812;2023-05-14T00:25:56;101317.50;;;9.79;100.00
78198;BME280;67472;51.554;7.812;2023-05-14T00:28:44;101316.34;;;9.83;100.00
78198;BME280;67472;51.554;7.812;2023-05-14T00:31:30;101314.78;;;9.80;100.00
78198;BME280;67472;51.554;7.812;2023-05-14T00:34:16;101321.22;;;9.76;100.00
78198;BME280;67472;51.554;7.812;2023-05-14T00:37:02;101311.91;;;9.58;100.00
78198;BME280;67472;51.554;7.812;2023-05-14T00:39:49;101307.47;;;9.33;100.00
78198;BME280;67472;51.554;7.812;2023-05-14T00:42:35;101301.53;;;9.17;100.00
78198;BME280;67472;51.554;7.812;2023-05-14T00:45:52;101303.22;;;9.18;100.00
78198;BME280;67472;51.554;7.812;2023-05-14T00:48:38;101304.41;;;9.14;100.00
78198;BME280;67472;51.554;7.812;2023-05-14T00:51:25;101303.75;;;9.23;100.00
78198;BME280;67472;51.554;7.812;2023-05-14T00:54:12;101301.13;;;9.11;100.00
78198;BME280;67472;51.554;7.812;2023-05-14T00:56:59;101307.00;;;9.01;100.00
78198;BME280;67472;51.554;7.812;2023-05-14T00:59:46;101306.53;;;8.95;100.00
78198;BME280;67472;51.554;7.812;2023-05-14T01:02:36;101313.56;;;8.82;100.00
78198;BME280;67472;51.554;7.812;2023-05-14T01:05:23;101331.31;;;8.92;100.00
78198;BME280;67472;51.554;7.812;2023-05-14T01:08:17;101333.22;;;9.03;100.00
78198;BME280;67472;51.554;7.812;2023-05-14T01:11:11;101345.66;;;9.01;100.00
78198;BME280;67472;51.554;7.812;2023-05-14T01:14:03;101351.34;;;8.95;100.00
78198;BME280;67472;51.554;7.812;2023-05-14T01:16:57;101352.72;;;9.00;100.00
78198;BME280;67472;51.554;7.812;2023-05-14T01:19:46;101352.50;;;8.91;100.00
78198;BME280;67472;51.554;7.812;2023-05-14T01:22:34;101353.28;;;8.79;100.00
78198;BME280;67472;51.554;7.812;2023-05-14T01:25:23;101362.13;;;8.78;100.00
78198;BME280;67472;51.554;7.812;2023-05-14T01:28:12;101353.22;;;8.66;100.00
78198;BME280;67472;51.554;7.812;2023-05-14T01:31:06;101354.00;;;8.54;100.00
78198;BME280;67472;51.554;7.812;2023-05-14T01:33:53;101349.00;;;8.64;100.00
78198;BME280;67472;51.554;7.812;2023-05-14T01:36:42;101350.50;;;8.68;100.00
78198;BME280;67472;51.554;7.812;2023-05-14T01:39:31;101343.75;;;8.49;100.00
78198;BME280;67472;51.554;7.812;2023-05-14T01:42:17;101343.50;;;8.40;100.00
78198;BME280;67472;51.554;7.812;2023-05-14T01:45:04;101348.38;;;8.46;100.00
78198;BME280;67472;51.554;7.812;2023-05-14T01:47:52;101348.69;;;8.41;100.00
78198;BME280;67472;51.554;7.812;2023-05-14T01:50:38;101348.88;;;8.38;100.00
78198;BME280;67472;51.554;7.812;2023-05-14T01:53:25;101349.03;;;8.49;100.00
78198;BME280;67472;51.554;7.812;2023-05-14T01:56:12;101352.50;;;8.50;100.00
78198;BME280;67472;51.554;7.812;2023-05-14T01:58:58;101347.88;;;8.53;100.00
78198;BME280;67472;51.554;7.812;2023-05-14T02:01:45;101346.63;;;8.59;100.00
78198;BME280;67472;51.554;7.812;2023-05-14T02:04:31;101349.38;;;8.58;100.00
78198;BME280;67472;51.554;7.812;2023-05-14T02:07:18;101349.78;;;8.51;100.00
78198;BME280;67472;51.554;7.812;2023-05-14T02:10:05;101353.53;;;8.47;100.00
78198;BME280;67472;51.554;7.812;2023-05-14T02:12:53;101356.00;;;8.36;100.00
78198;BME280;67472;51.554;7.812;2023-05-14T02:15:39;101353.66;;;8.32;100.00
78198;BME280;67472;51.554;7.812;2023-05-14T02:18:25;101352.25;;;8.40;100.00
78198;BME280;67472;51.554;7.812;2023-05-14T02:21:11;101347.47;;;8.33;100.00
78198;BME280;67472;51.554;7.812;2023-05-14T02:23:57;101350.66;;;8.38;100.00
78198;BME280;67472;51.554;7.812;2023-05-14T02:26:43;101356.00;;;8.36;100.00
78198;BME280;67472;51.554;7.812;2023-05-14T02:29:31;101352.97;;;8.42;100.00
78198;BME280;67472;51.554;7.812;2023-05-14T02:32:17;101347.53;;;8.31;100.00
78198;BME280;67472;51.554;7.812;2023-05-14T02:35:05;101350.44;;;8.27;100.00
78198;BME280;67472;51.554;7.812;2023-05-14T02:37:51;101348.28;;;8.19;100.00
78198;BME280;67472;51.554;7.812;2023-05-14T02:40:39;101345.25;;;8.25;100.00
78198;BME280;67472;51.554;7.812;2023-05-14T02:43:25;101351.94;;;8.17;100.00
78198;BME280;67472;51.554;7.812;2023-05-14T02:46:13;101350.91;;;8.19;100.00
78198;BME280;67472;51.554;7.812;2023-05-14T02:48:59;101353.94;;;8.27;100.00
78198;BME280;67472;51.554;7.812;2023-05-14T02:51:46;101351.09;;;8.30;100.00
78198;BME280;67472;51.554;7.812;2023-05-14T02:54:32;101348.28;;;8.19;100.00
78198;BME280;67472;51.554;7.812;2023-05-14T02:57:19;101347.53;;;8.03;100.00
78198;BME280;67472;51.554;7.812;2023-05-14T03:00:06;101357.88;;;7.92;100.00
78198;BME280;67472;51.554;7.812;2023-05-14T03:02:54;101343.69;;;7.80;100.00
78198;BME280;67472;51.554;7.812;2023-05-14T03:05:40;101336.44;;;7.70;100.00
78198;BME280;67472;51.554;7.812;2023-05-14T03:08:26;101341.78;;;7.68;100.00
78198;BME280;67472;51.554;7.812;2023-05-14T03:11:12;101335.50;;;7.57;100.00
78198;BME280;67472;51.554;7.812;2023-05-14T03:13:59;101339.91;;;7.56;100.00
78198;BME280;67472;51.554;7.812;2023-05-14T03:16:45;101338.38;;;7.52;100.00
78198;BME280;67472;51.554;7.812;2023-05-14T03:19:33;101341.41;;;7.60;100.00
78198;BME280;67472;51.554;7.812;2023-05-14T03:22:19;101334.66;;;7.70;100.00
78198;BME280;67472;51.554;7.812;2023-05-14T03:25:06;101334.38;;;7.75;100.00
78198;BME280;67472;51.554;7.812;2023-05-14T03:27:54;101338.22;;;7.69;100.00
78198;BME280;67472;51.554;7.812;2023-05-14T03:30:40;101324.78;;;7.60;100.00
78198;BME280;67472;51.554;7.812;2023-05-14T03:33:28;101320.81;;;7.53;100.00
78198;BME280;67472;51.554;7.812;2023-05-14T03:36:16;101312.25;;;7.49;100.00
78198;BME280;67472;51.554;7.812;2023-05-14T03:39:02;101310.19;;;7.40;100.00
78198;BME280;67472;51.554;7.812;2023-05-14T03:41:50;101301.00;;;7.33;100.00
78198;BME280;67472;51.554;7.812;2023-05-14T03:44:36;101292.13;;;7.20;100.00
78198;BME280;67472;51.554;7.812;2023-05-14T03:47:23;101292.41;;;7.15;100.00
78198;BME280;67472;51.554;7.812;2023-05-14T03:50:09;101300.00;;;7.20;100.00
78198;BME280;67472;51.554;7.812;2023-05-14T03:52:56;101294.31;;;7.27;100.00
78198;BME280;67472;51.554;7.812;2023-05-14T03:55:43;101297.13;;;7.24;100.00
78198;BME280;67472;51.554;7.812;2023-05-14T03:58:29;101295.41;;;7.23;100.00
78198;BME280;67472;51.554;7.812;2023-05-14T04:01:17;101306.03;;;7.22;100.00
78198;BME280;67472;51.554;7.812;2023-05-14T04:04:04;101309.44;;;7.38;100.00
78198;BME280;67472;51.554;7.812;2023-05-14T04:06:50;101309.03;;;7.60;100.00
78198;BME280;67472;51.554;7.812;2023-05-14T04:09:38;101314.34;;;7.72;100.00
78198;BME280;67472;51.554;7.812;2023-05-14T04:12:24;101316.34;;;7.83;100.00
78198;BME280;67472;51.554;7.812;2023-05-14T04:15:11;101313.59;;;7.98;100.00
78198;BME280;67472;51.554;7.812;2023-05-14T04:17:57;101307.50;;;8.12;100.00
78198;BME280;67472;51.554;7.812;2023-05-14T04:20:43;101310.78;;;8.44;100.00
78198;BME280;67472;51.554;7.812;2023-05-14T04:23:30;101303.81;;;8.96;100.00
78198;BME280;67472;51.554;7.812;2023-05-14T04:26:18;101281.66;;;9.51;100.00
78198;BME280;67472;51.554;7.812;2023-05-14T04:29:05;101250.03;;;10.00;100.00
78198;BME280;67472;51.554;7.812;2023-05-14T04:31:52;101194.66;;;9.87;100.00
78198;BME280;67472;51.554;7.812;2023-05-14T04:34:38;101147.25;;;9.62;100.00
78198;BME280;67472;51.554;7.812;2023-05-14T04:37:25;101123.38;;;9.27;100.00
78198;BME280;67472;51.554;7.812;2023-05-14T04:40:11;101124.63;;;9.22;100.00
78198;BME280;67472;51.554;7.812;2023-05-14T04:42:58;101113.88;;;9.12;100.00
78198;BME280;67472;51.554;7.812;2023-05-14T04:45:45;101117.06;;;8.92;100.00
78198;BME280;67472;51.554;7.812;2023-05-14T04:48:31;101125.72;;;8.81;100.00
78198;BME280;67472;51.554;7.812;2023-05-14T04:51:17;101126.44;;;8.83;100.00
78198;BME280;67472;51.554;7.812;2023-05-14T04:54:04;101137.94;;;8.95;100.00
78198;BME280;67472;51.554;7.812;2023-05-14T04:56:50;101137.94;;;9.07;100.00
78198;BME280;67472;51.554;7.812;2023-05-14T04:59:37;101142.88;;;9.25;100.00
78198;BME280;67472;51.554;7.812;2023-05-14T05:02:24;101144.97;;;9.32;100.00
78198;BME280;67472;51.554;7.812;2023-05-14T05:05:10;101151.50;;;9.39;100.00
78198;BME280;67472;51.554;7.812;2023-05-14T05:07:56;101159.59;;;9.61;100.00
78198;BME280;67472;51.554;7.812;2023-05-14T05:10:43;101164.06;;;9.85;100.00
78198;BME280;67472;51.554;7.812;2023-05-14T05:13:29;101169.38;;;10.08;100.00
78198;BME280;67472;51.554;7.812;2023-05-14T05:16:17;101164.44;;;10.28;100.00
78198;BME280;67472;51.554;7.812;2023-05-14T05:19:03;101159.91;;;10.30;100.00
78198;BME280;67472;51.554;7.812;2023-05-14T05:21:50;101158.28;;;10.51;100.00
78198;BME280;67472;51.554;7.812;2023-05-14T05:24:36;101163.19;;;10.68;100.00
78198;BME280;67472;51.554;7.812;2023-05-14T05:27:23;101162.09;;;10.70;100.00
78198;BME280;67472;51.554;7.812;2023-05-14T05:30:10;101165.00;;;10.78;100.00
78198;BME280;67472;51.554;7.812;2023-05-14T05:32:58;101170.22;;;10.91;100.00
78198;BME280;67472;51.554;7.812;2023-05-14T05:35:44;101164.47;;;11.19;100.00
78198;BME280;67472;51.554;7.812;2023-05-14T05:38:31;101166.41;;;11.28;100.00
78198;BME280;67472;51.554;7.812;2023-05-14T05:41:17;101148.59;;;11.42;100.00
78198;BME280;67472;51.554;7.812;2023-05-14T05:44:04;101132.75;;;11.75;100.00
78198;BME280;67472;51.554;7.812;2023-05-14T05:46:50;101126.31;;;11.88;100.00
78198;BME280;67472;51.554;7.812;2023-05-14T05:49:38;101115.81;;;12.09;100.00
78198;BME280;67472;51.554;7.812;2023-05-14T05:52:24;101106.50;;;11.83;100.00
78198;BME280;67472;51.554;7.812;2023-05-14T05:55:10;101106.94;;;11.88;100.00
78198;BME280;67472;51.554;7.812;2023-05-14T05:57:57;101106.94;;;11.88;100.00
78198;BME280;67472;51.554;7.812;2023-05-14T06:00:43;101104.16;;;12.01;100.00
78198;BME280;67472;51.554;7.812;2023-05-14T06:03:30;101099.75;;;11.79;100.00
78198;BME280;67472;51.554;7.812;2023-05-14T06:06:18;101097.03;;;11.69;100.00
78198;BME280;67472;51.554;7.812;2023-05-14T06:09:05;101094.94;;;11.62;100.00
78198;BME280;67472;51.554;7.812;2023-05-14T06:11:52;101103.16;;;11.48;100.00
78198;BME280;67472;51.554;7.812;2023-05-14T06:14:38;101111.22;;;11.46;100.00
78198;BME280;67472;51.554;7.812;2023-05-14T06:17:25;101125.63;;;11.53;100.00
78198;BME280;67472;51.554;7.812;2023-05-14T06:20:12;101125.63;;;11.53;100.00
78198;BME280;67472;51.554;7.812;2023-05-14T06:22:59;101122.38;;;11.50;100.00
78198;BME280;67472;51.554;7.812;2023-05-14T06:25:45;101128.41;;;11.74;100.00
78198;BME280;67472;51.554;7.812;2023-05-14T06:28:32;101124.31;;;11.81;100.00
78198;BME280;67472;51.554;7.812;2023-05-14T06:31:18;101122.19;;;12.07;100.00
78198;BME280;67472;51.554;7.812;2023-05-14T06:34:04;101120.91;;;12.22;100.00
78198;BME280;67472;51.554;7.812;2023-05-14T06:36:52;101108.69;;;12.41;100.00
78198;BME280;67472;51.554;7.812;2023-05-14T06:39:39;101099.25;;;12.48;100.00
78198;BME280;67472;51.554;7.812;2023-05-14T06:42:30;101078.81;;;12.81;100.00
78198;BME280;67472;51.554;7.812;2023-05-14T06:45:16;101072.34;;;13.04;100.00
78198;BME280;67472;51.554;7.812;2023-05-14T06:48:03;101048.34;;;13.26;100.00
78198;BME280;67472;51.554;7.812;2023-05-14T06:50:49;101033.03;;;13.49;100.00
78198;BME280;67472;51.554;7.812;2023-05-14T06:53:35;101026.31;;;13.64;100.00
78198;BME280;67472;51.554;7.812;2023-05-14T06:56:23;101012.22;;;13.73;100.00
78198;BME280;67472;51.554;7.812;2023-05-14T06:59:09;101010.41;;;14.22;100.00
78198;BME280;67472;51.554;7.812;2023-05-14T07:01:56;100987.50;;;13.92;100.00
78198;BME280;67472;51.554;7.812;2023-05-14T07:04:42;100986.78;;;13.99;100.00
78198;BME280;67472;51.554;7.812;2023-05-14T07:07:28;100981.16;;;14.31;100.00
78198;BME280;67472;51.554;7.812;2023-05-14T07:10:14;100967.84;;;14.31;100.00
78198;BME280;67472;51.554;7.812;2023-05-14T07:13:02;100962.16;;;14.36;100.00
78198;BME280;67472;51.554;7.812;2023-05-14T07:15:48;100966.84;;;14.51;100.00
78198;BME280;67472;51.554;7.812;2023-05-14T07:18:35;100961.28;;;14.82;100.00
78198;BME280;67472;51.554;7.812;2023-05-14T07:21:21;100957.88;;;14.89;100.00
78198;BME280;67472;51.554;7.812;2023-05-14T07:24:08;100937.72;;;15.14;100.00
78198;BME280;67472;51.554;7.812;2023-05-14T07:26:54;100932.19;;;15.25;100.00
78198;BME280;67472;51.554;7.812;2023-05-14T07:29:42;100933.44;;;15.48;100.00
78198;BME280;67472;51.554;7.812;2023-05-14T07:32:29;100927.66;;;15.35;100.00
78198;BME280;67472;51.554;7.812;2023-05-14T07:35:15;100922.69;;;15.40;100.00
78198;BME280;67472;51.554;7.812;2023-05-14T07:38:02;100929.50;;;15.70;100.00
78198;BME280;67472;51.554;7.812;2023-05-14T07:40:49;100910.06;;;15.77;100.00
78198;BME280;67472;51.554;7.812;2023-05-14T07:43:35;100902.88;;;15.52;100.00
78198;BME280;67472;51.554;7.812;2023-05-14T07:46:24;100909.63;;;15.64;100.00
78198;BME280;67472;51.554;7.812;2023-05-14T07:49:11;100907.97;;;15.63;100.00
78198;BME280;67472;51.554;7.812;2023-05-14T07:51:57;100905.59;;;15.78;100.00
78198;BME280;67472;51.554;7.812;2023-05-14T07:54:43;100898.19;;;16.15;100.00
78198;BME280;67472;51.554;7.812;2023-05-14T07:57:29;100883.28;;;16.56;100.00
78198;BME280;67472;51.554;7.812;2023-05-14T08:00:16;100872.72;;;16.21;100.00
78198;BME280;67472;51.554;7.812;2023-05-14T08:03:04;100873.25;;;16.24;100.00
78198;BME280;67472;51.554;7.812;2023-05-14T08:05:50;100876.84;;;16.49;100.00
78198;BME280;67472;51.554;7.812;2023-05-14T08:08:36;100874.41;;;16.22;100.00
78198;BME280;67472;51.554;7.812;2023-05-14T08:11:23;100872.69;;;16.47;100.00
78198;BME280;67472;51.554;7.812;2023-05-14T08:14:09;100878.91;;;16.97;100.00
78198;BME280;67472;51.554;7.812;2023-05-14T08:16:55;100857.06;;;17.10;100.00
78198;BME280;67472;51.554;7.812;2023-05-14T08:19:43;100849.78;;;17.44;100.00
78198;BME280;67472;51.554;7.812;2023-05-14T08:22:30;100842.56;;;17.28;100.00
78198;BME280;67472;51.554;7.812;2023-05-14T08:25:16;100852.22;;;17.13;100.00
78198;BME280;67472;51.554;7.812;2023-05-14T08:28:03;100855.94;;;17.36;100.00
78198;BME280;67472;51.554;7.812;2023-05-14T08:30:49;100840.56;;;17.14;100.00
78198;BME280;67472;51.554;7.812;2023-05-14T08:33:35;100845.56;;;17.17;100.00
78198;BME280;67472;51.554;7.812;2023-05-14T08:36:23;100852.66;;;17.59;100.00
78198;BME280;67472;51.554;7.812;2023-05-14T08:39:09;100834.56;;;17.93;100.00
78198;BME280;67472;51.554;7.812;2023-05-14T08:41:56;100817.84;;;17.99;100.00
78198;BME280;67472;51.554;7.812;2023-05-14T08:44:46;100824.03;;;17.91;100.00
78198;BME280;67472;51.554;7.812;2023-05-14T08:47:34;100808.28;;;17.96;100.00
78198;BME280;67472;51.554;7.812;2023-05-14T08:50:21;100838.63;;;18.28;100.00
78198;BME280;67472;51.554;7.812;2023-05-14T08:53:08;100816.34;;;18.51;100.00
78198;BME280;67472;51.554;7.812;2023-05-14T08:55:55;100808.50;;;18.73;100.00
78198;BME280;67472;51.554;7.812;2023-05-14T08:58:42;100788.44;;;18.38;100.00
78198;BME280;67472;51.554;7.812;2023-05-14T09:01:28;100793.13;;;18.36;100.00
78198;BME280;67472;51.554;7.812;2023-05-14T09:04:19;100786.78;;;18.37;100.00
78198;BME280;67472;51.554;7.812;2023-05-14T09:07:07;100787.66;;;18.68;100.00
78198;BME280;67472;51.554;7.812;2023-05-14T09:09:55;100784.13;;;18.90;100.00
78198;BME280;67472;51.554;7.812;2023-05-14T09:12:41;100767.44;;;18.88;100.00
78198;BME280;67472;51.554;7.812;2023-05-14T09:15:28;100772.66;;;19.04;100.00
78198;BME280;67472;51.554;7.812;2023-05-14T09:18:14;100778.63;;;19.14;100.00
78198;BME280;67472;51.554;7.812;2023-05-14T09:21:00;100792.84;;;19.15;100.00
78198;BME280;67472;51.554;7.812;2023-05-14T09:23:52;100781.72;;;19.03;100.00
78198;BME280;67472;51.554;7.812;2023-05-14T09:26:40;100788.47;;;19.37;100.00
78198;BME280;67472;51.554;7.812;2023-05-14T09:29:27;100774.44;;;19.35;100.00
78198;BME280;67472;51.554;7.812;2023-05-14T09:32:15;100766.00;;;19.60;100.00
78198;BME280;67472;51.554;7.812;2023-05-14T09:35:11;100759.06;;;19.66;100.00
78198;BME280;67472;51.554;7.812;2023-05-14T09:37:59;100760.19;;;19.34;100.00
78198;BME280;67472;51.554;7.812;2023-05-14T09:40:45;100762.47;;;19.60;100.00
78198;BME280;67472;51.554;7.812;2023-05-14T09:43:33;100756.78;;;19.78;99.79
78198;BME280;67472;51.554;7.812;2023-05-14T09:46:20;100740.94;;;19.53;97.76
78198;BME280;67472;51.554;7.812;2023-05-14T09:49:06;100759.06;;;19.51;100.00
78198;BME280;67472;51.554;7.812;2023-05-14T09:51:52;100747.72;;;19.79;98.31
78198;BME280;67472;51.554;7.812;2023-05-14T09:54:40;100755.72;;;20.52;100.00
78198;BME280;67472;51.554;7.812;2023-05-14T09:57:27;100731.41;;;20.39;93.99
78198;BME280;67472;51.554;7.812;2023-05-14T10:00:15;100751.50;;;20.64;97.72
78198;BME280;67472;51.554;7.812;2023-05-14T10:03:05;100744.19;;;20.58;96.32
78198;BME280;67472;51.554;7.812;2023-05-14T10:05:51;100732.28;;;20.60;93.79
78198;BME280;67472;51.554;7.812;2023-05-14T10:08:42;100743.69;;;20.48;96.08
78198;BME280;67472;51.554;7.812;2023-05-14T10:11:31;100756.06;;;20.63;100.00
78198;BME280;67472;51.554;7.812;2023-05-14T10:14:22;100723.25;;;20.17;91.26
78198;BME280;67472;51.554;7.812;2023-05-14T10:17:11;100732.97;;;20.33;92.97
78198;BME280;67472;51.554;7.812;2023-05-14T10:20:02;100699.78;;;20.34;85.07
78198;BME280;67472;51.554;7.812;2023-05-14T10:22:53;100727.38;;;19.99;89.19
78198;BME280;67472;51.554;7.812;2023-05-14T10:25:39;100749.34;;;20.09;97.38
78198;BME280;67472;51.554;7.812;2023-05-14T10:28:26;100753.06;;;19.64;95.65
78198;BME280;67472;51.554;7.812;2023-05-14T10:31:13;100745.78;;;19.87;98.62
78198;BME280;67472;51.554;7.812;2023-05-14T10:34:01;100734.56;;;20.13;95.58
78198;BME280;67472;51.554;7.812;2023-05-14T10:36:47;100739.16;;;20.48;96.43
78198;BME280;67472;51.554;7.812;2023-05-14T10:39:45;100735.53;;;20.98;96.69
78198;BME280;67472;51.554;7.812;2023-05-14T10:42:32;100719.72;;;21.31;89.43
78198;BME280;67472;51.554;7.812;2023-05-14T10:45:21;100679.41;;;21.31;83.50
78198;BME280;67472;51.554;7.812;2023-05-14T10:48:09;100696.66;;;20.94;84.66
78198;BME280;67472;51.554;7.812;2023-05-14T10:50:56;100720.44;;;21.18;88.77
78198;BME280;67472;51.554;7.812;2023-05-14T10:53:43;100709.66;;;21.12;85.12
78198;BME280;67472;51.554;7.812;2023-05-14T10:56:30;100680.34;;;21.17;82.64
78198;BME280;67472;51.554;7.812;2023-05-14T10:59:16;100662.16;;;21.47;78.28
78198;BME280;67472;51.554;7.812;2023-05-14T11:02:04;100681.97;;;21.46;81.13
78198;BME280;67472;51.554;7.812;2023-05-14T11:04:57;100669.63;;;21.92;77.68
78198;BME280;67472;51.554;7.812;2023-05-14T11:07:46;100655.38;;;21.98;74.84
78198;BME280;67472;51.554;7.812;2023-05-14T11:10:34;100627.78;;;21.42;71.10
78198;BME280;67472;51.554;7.812;2023-05-14T11:13:20;100663.13;;;20.90;70.11
78198;BME280;67472;51.554;7.812;2023-05-14T11:16:07;100701.09;;;21.29;76.25
78198;BME280;67472;51.554;7.812;2023-05-14T11:19:00;100678.16;;;21.06;73.36
78198;BME280;67472;51.554;7.812;2023-05-14T11:21:46;100678.81;;;21.35;73.65
78198;BME280;67472;51.554;7.812;2023-05-14T11:24:34;100641.88;;;21.51;68.62
78198;BME280;67472;51.554;7.812;2023-05-14T11:27:20;100651.56;;;21.11;70.01
78198;BME280;67472;51.554;7.812;2023-05-14T11:30:12;100655.75;;;21.48;70.52
78198;BME280;67472;51.554;7.812;2023-05-14T11:32:59;100640.19;;;21.43;68.31
78198;BME280;67472;51.554;7.812;2023-05-14T11:35:46;100625.75;;;21.44;65.01
78198;BME280;67472;51.554;7.812;2023-05-14T11:38:32;100648.50;;;21.48;68.31
78198;BME280;67472;51.554;7.812;2023-05-14T11:41:19;100632.84;;;21.24;67.09
78198;BME280;67472;51.554;7.812;2023-05-14T11:44:09;100646.91;;;21.60;68.81
78198;BME280;67472;51.554;7.812;2023-05-14T11:46:56;100632.09;;;21.71;66.32
78198;BME280;67472;51.554;7.812;2023-05-14T11:49:43;100655.38;;;21.98;71.78
78198;BME280;67472;51.554;7.812;2023-05-14T11:52:29;100613.72;;;21.40;65.54
78198;BME280;67472;51.554;7.812;2023-05-14T11:55:15;100578.72;;;21.27;60.66
78198;BME280;67472;51.554;7.812;2023-05-14T11:58:03;100594.06;;;21.33;61.30
78198;BME280;67472;51.554;7.812;2023-05-14T12:00:50;100610.00;;;21.41;64.37
78198;BME280;67472;51.554;7.812;2023-05-14T12:03:36;100644.56;;;21.51;69.28
78198;BME280;67472;51.554;7.812;2023-05-14T12:06:29;100610.72;;;22.10;64.33
78198;BME280;67472;51.554;7.812;2023-05-14T12:09:17;100618.66;;;21.36;64.63
78198;BME280;67472;51.554;7.812;2023-05-14T12:12:08;100649.97;;;20.95;68.45
78198;BME280;67472;51.554;7.812;2023-05-14T12:14:58;100614.78;;;20.90;65.17
78198;BME280;67472;51.554;7.812;2023-05-14T12:17:49;100616.06;;;21.15;65.00
78198;BME280;67472;51.554;7.812;2023-05-14T12:20:35;100614.94;;;21.37;65.48
78198;BME280;67472;51.554;7.812;2023-05-14T12:23:25;100618.47;;;21.79;65.55
78198;BME280;67472;51.554;7.812;2023-05-14T12:26:11;100612.22;;;21.72;66.18
78198;BME280;67472;51.554;7.812;2023-05-14T12:28:58;100622.38;;;21.76;67.06
78198;BME280;67472;51.554;7.812;2023-05-14T12:31:48;100615.84;;;21.92;66.62
78198;BME280;67472;51.554;7.812;2023-05-14T12:34:34;100613.78;;;22.01;67.57
78198;BME280;67472;51.554;7.812;2023-05-14T12:37:21;100619.88;;;22.35;69.27
78198;BME280;67472;51.554;7.812;2023-05-14T12:40:08;100601.66;;;22.24;66.50
78198;BME280;67472;51.554;7.812;2023-05-14T12:42:54;100595.41;;;22.04;65.24
78198;BME280;67472;51.554;7.812;2023-05-14T12:45:40;100592.72;;;22.11;65.64
78198;BME280;67472;51.554;7.812;2023-05-14T12:48:28;100581.78;;;22.25;65.19
78198;BME280;67472;51.554;7.812;2023-05-14T12:51:15;100577.66;;;22.36;64.36
78198;BME280;67472;51.554;7.812;2023-05-14T12:54:01;100580.16;;;21.70;64.01
78198;BME280;67472;51.554;7.812;2023-05-14T12:56:47;100573.13;;;21.69;63.04
78198;BME280;67472;51.554;7.812;2023-05-14T12:59:33;100566.97;;;21.82;62.40
78198;BME280;67472;51.554;7.812;2023-05-14T13:02:20;100545.91;;;21.92;61.25
78198;BME280;67472;51.554;7.812;2023-05-14T13:05:08;100551.53;;;22.10;61.97
78198;BME280;67472;51.554;7.812;2023-05-14T13:07:58;100556.13;;;22.23;62.86
78198;BME280;67472;51.554;7.812;2023-05-14T13:10:44;100559.00;;;22.08;63.78
78198;BME280;67472;51.554;7.812;2023-05-14T13:13:30;100558.72;;;21.90;64.09
78198;BME280;67472;51.554;7.812;2023-05-14T13:16:16;100545.59;;;21.74;62.13
78198;BME280;67472;51.554;7.812;2023-05-14T13:19:02;100536.75;;;21.86;61.74
78198;BME280;67472;51.554;7.812;2023-05-14T13:21:51;100557.97;;;21.55;62.96
78198;BME280;67472;51.554;7.812;2023-05-14T13:24:38;100545.69;;;21.33;61.95
78198;BME280;67472;51.554;7.812;2023-05-14T13:27:24;100559.38;;;21.45;64.52
78198;BME280;67472;51.554;7.812;2023-05-14T13:30:11;100535.69;;;21.74;60.52
78198;BME280;67472;51.554;7.812;2023-05-14T13:32:58;100531.66;;;22.05;61.33
78198;BME280;67472;51.554;7.812;2023-05-14T13:35:45;100542.34;;;21.85;63.05
78198;BME280;67472;51.554;7.812;2023-05-14T13:38:33;100560.75;;;21.81;64.97
78198;BME280;67472;51.554;7.812;2023-05-14T13:41:19;100541.16;;;21.94;63.65
78198;BME280;67472;51.554;7.812;2023-05-14T13:44:06;100533.00;;;21.74;62.46
78198;BME280;67472;51.554;7.812;2023-05-14T13:46:52;100545.13;;;21.51;63.69
78198;BME280;67472;51.554;7.812;2023-05-14T13:49:39;100521.59;;;21.59;61.37
78198;BME280;67472;51.554;7.812;2023-05-14T13:52:25;100528.88;;;21.78;62.45
78198;BME280;67472;51.554;7.812;2023-05-14T13:55:13;100508.38;;;21.64;60.92
78198;BME280;67472;51.554;7.812;2023-05-14T13:58:00;100535.09;;;21.85;64.63
78198;BME280;67472;51.554;7.812;2023-05-14T14:00:46;100528.84;;;21.59;63.72
78198;BME280;67472;51.554;7.812;2023-05-14T14:03:32;100536.59;;;21.88;65.30
78198;BME280;67472;51.554;7.812;2023-05-14T14:06:19;100517.38;;;22.04;62.69
78198;BME280;67472;51.554;7.812;2023-05-14T14:09:04;100499.91;;;21.80;61.21
78198;BME280;67472;51.554;7.812;2023-05-14T14:11:52;100511.81;;;22.06;61.96
78198;BME280;67472;51.554;7.812;2023-05-14T14:14:38;100506.69;;;21.63;62.37
78198;BME280;67472;51.554;7.812;2023-05-14T14:17:25;100508.38;;;21.64;63.86
78198;BME280;67472;51.554;7.812;2023-05-14T14:20:11;100515.16;;;21.47;65.23
78198;BME280;67472;51.554;7.812;2023-05-14T14:22:57;100514.56;;;21.71;66.03
78198;BME280;67472;51.554;7.812;2023-05-14T14:25:44;100497.50;;;21.99;63.58
78198;BME280;67472;51.554;7.812;2023-05-14T14:28:31;100485.22;;;21.70;62.61
78198;BME280;67472;51.554;7.812;2023-05-14T14:31:18;100479.50;;;22.12;61.33